Record high temperature 42.2°C Record low temperature -14.6°C Record high gust 76.2 km/h Record high average 96.8 km/h Record daily rain 63.7 mm Record low windchill -17.5°C Record high barometer 1046.0 hPa Record low barometer 960.0 hPa
Daily high pressure 1002.0 hPa Daily low pressure 1000.0 hPa Daily low windchill -2.0°C Daily high heat index 1.8°C Daily high gust speed 17.2 kmh NNE Daily high average speed 12.6 kmh ENE

This page is updated from recent data collected by a WMR200 weather station Use the Reload or Refresh facility on your browser to retrieve the latest data.

Status report of weather station: Bienvenue sur la Station Météo de Godarville



Weather report/warning/Metars

Alexandroupoli Airport , Greece (LGAL) 40-51N 025-55E 3M
Dec 03, 2022 - 11:20 PM EST / 2022.12.04 0420 UTC
Wind: from the NE (050 degrees) at 14 MPH (12 KT):0
Visibility: greater than 7 mile(s):0
Sky conditions: mostly cloudy
Temperature: 46 F (8 C)
Dew Point: 42 F (6 C)
Relative Humidity: 87%
Pressure (altimeter): 30.33 in. Hg (1027 hPa)
ob: LGAL 040420Z 05012KT 9999 FEW010 BKN020 08/06 Q1027
cycle: 4

Charleroi / Gosselies, Belgium (EBCI) 50-28N 004-27E 192M
Dec 03, 2022 - 11:20 PM EST / 2022.12.04 0420 UTC
Wind: from the NE (050 degrees) at 12 MPH (10 KT):0
Visibility: 3 mile(s):0
Sky conditions: mostly cloudy
Temperature: 32 F (0 C)
Windchill: 23 F (-5 C):1
Dew Point: 30 F (-1 C)
Relative Humidity: 92%
Pressure (altimeter): 29.94 in. Hg (1014 hPa)
ob: EBCI 040420Z 05010KT 6000 BKN006 00/M01 Q1014 TEMPO 4000 BR
cycle: 4

Bruxelles National, Belgium (EBBR) 50-54N 004-32E 58M
Dec 03, 2022 - 11:20 PM EST / 2022.12.04 0420 UTC
Wind: from the ENE (060 degrees) at 7 MPH (6 KT):0
Visibility: 4 mile(s):0
Sky conditions: mostly cloudy
Temperature: 33 F (1 C)
Windchill: 26 F (-3 C):1
Dew Point: 30 F (-1 C)
Relative Humidity: 86%
Pressure (altimeter): 30.00 in. Hg (1016 hPa)
ob: EBBR 040420Z 06006KT 7000 FEW008 SCT010 BKN022 01/M01 Q1016 TEMPO 4000 BR
cycle: 4

Koksijde, Belgium (EBFN) 51-05N 002-39E 9M
Dec 03, 2022 - 11:25 PM EST / 2022.12.04 0425 UTC
Wind: from the ENE (070 degrees) at 9 MPH (8 KT):0
Visibility: 2 mile(s):0
Sky conditions: mostly clear
Weather: mist
Temperature: 32 F (0 C)
Windchill: 24 F (-4 C):1
Dew Point: 30 F (-1 C)
Relative Humidity: 92%
Pressure (altimeter): 30.00 in. Hg (1016 hPa)
ob: EBFN 040425Z AUTO 07008KT 4000 BR FEW011/// 00/M01 Q1016 GRN
cycle: 4

Poznan, Poland (EPPO) 52-25N 016-50E 92M
Dec 03, 2022 - 11:30 PM EST / 2022.12.04 0430 UTC
Wind: from the E (090 degrees) at 8 MPH (7 KT):0
Visibility: 2 mile(s):0
Sky conditions: overcast
Weather: mist
Temperature: 33 F (1 C)
Windchill: 26 F (-3 C):1
Dew Point: 33 F (1 C)
Relative Humidity: 100%
Pressure (altimeter): 30.18 in. Hg (1022 hPa)
ob: EPPO 040430Z 09007KT 3500 BR OVC004 01/01 Q1022 
cycle: 4



Coucher du Soleil:
16:40:48

Lever de Lune:
14:41:21 03/12/22

Coucher de Lune:
02:45:52 03/12/22

Premier Quartier 30 novembre 2022
Pleine Lune 8 décembre 2022
Dernier Quartier 16 décembre 2022
Nouvelle Lune 23 décembre 2022
Âge de lune : 10 jours,18 heures,55 minutes,83%
Les heures du jour possible étaient aujourd’hui 08:16



Use the RELOAD facility on your browser to retrieve the latest data.

Click here for a daily update of the averages/extremes to date for the month
Created by "Weather Display" software version 10.37P at this start time/date 00:25:31 12/11/2022